sensor_id;sensor_type;location;lat;lon;timestamp;P1;durP1;ratioP1;P2;durP2;ratioP2
13202;SDS011;6666;51.626;7.530;2023-04-03T00:01:23;3.20;;;1.20;;
13202;SDS011;6666;51.626;7.530;2023-04-03T00:03:52;1.80;;;1.00;;
13202;SDS011;6666;51.626;7.530;2023-04-03T00:06:20;2.92;;;1.10;;
13202;SDS011;6666;51.626;7.530;2023-04-03T00:08:49;2.72;;;1.30;;
13202;SDS011;6666;51.626;7.530;2023-04-03T00:11:17;2.42;;;1.20;;
13202;SDS011;6666;51.626;7.530;2023-04-03T00:13:46;4.18;;;1.00;;
13202;SDS011;6666;51.626;7.530;2023-04-03T00:16:16;1.17;;;0.82;;
13202;SDS011;6666;51.626;7.530;2023-04-03T00:18:44;4.57;;;1.10;;
13202;SDS011;6666;51.626;7.530;2023-04-03T00:21:12;5.20;;;1.00;;
13202;SDS011;6666;51.626;7.530;2023-04-03T00:23:41;3.42;;;1.10;;
13202;SDS011;6666;51.626;7.530;2023-04-03T00:26:10;2.30;;;0.80;;
13202;SDS011;6666;51.626;7.530;2023-04-03T00:28:39;1.30;;;0.82;;
13202;SDS011;6666;51.626;7.530;2023-04-03T00:31:07;2.30;;;0.90;;
13202;SDS011;6666;51.626;7.530;2023-04-03T00:33:37;2.15;;;1.08;;
13202;SDS011;6666;51.626;7.530;2023-04-03T00:36:07;3.08;;;1.50;;
13202;SDS011;6666;51.626;7.530;2023-04-03T00:38:36;2.28;;;1.20;;
13202;SDS011;6666;51.626;7.530;2023-04-03T00:41:05;1.60;;;1.00;;
13202;SDS011;6666;51.626;7.530;2023-04-03T00:43:34;1.65;;;1.00;;
13202;SDS011;6666;51.626;7.530;2023-04-03T00:46:02;2.53;;;1.10;;
13202;SDS011;6666;51.626;7.530;2023-04-03T00:48:31;4.38;;;1.20;;
13202;SDS011;6666;51.626;7.530;2023-04-03T00:51:03;3.78;;;1.20;;
13202;SDS011;6666;51.626;7.530;2023-04-03T00:53:37;2.00;;;1.00;;
13202;SDS011;6666;51.626;7.530;2023-04-03T00:56:09;4.93;;;1.45;;
13202;SDS011;6666;51.626;7.530;2023-04-03T00:58:42;3.58;;;1.50;;
13202;SDS011;6666;51.626;7.530;2023-04-03T01:01:15;5.68;;;1.00;;
13202;SDS011;6666;51.626;7.530;2023-04-03T01:03:47;4.00;;;1.30;;
13202;SDS011;6666;51.626;7.530;2023-04-03T01:06:19;4.20;;;1.42;;
13202;SDS011;6666;51.626;7.530;2023-04-03T01:08:52;4.30;;;1.20;;
13202;SDS011;6666;51.626;7.530;2023-04-03T01:11:22;2.23;;;0.93;;
13202;SDS011;6666;51.626;7.530;2023-04-03T01:13:52;6.13;;;1.52;;
13202;SDS011;6666;51.626;7.530;2023-04-03T01:16:21;3.75;;;1.20;;
13202;SDS011;6666;51.626;7.530;2023-04-03T01:18:49;6.88;;;1.20;;
13202;SDS011;6666;51.626;7.530;2023-04-03T01:24:31;3.97;;;1.00;;
13202;SDS011;6666;51.626;7.530;2023-04-03T01:27:06;4.35;;;1.40;;
13202;SDS011;6666;51.626;7.530;2023-04-03T01:29:37;4.07;;;1.00;;
13202;SDS011;6666;51.626;7.530;2023-04-03T01:32:07;6.40;;;1.00;;
13202;SDS011;6666;51.626;7.530;2023-04-03T01:34:36;2.63;;;1.00;;
13202;SDS011;6666;51.626;7.530;2023-04-03T01:37:05;1.40;;;1.00;;
13202;SDS011;6666;51.626;7.530;2023-04-03T01:39:33;4.35;;;1.20;;
13202;SDS011;6666;51.626;7.530;2023-04-03T01:42:03;3.83;;;1.02;;
13202;SDS011;6666;51.626;7.530;2023-04-03T01:44:37;2.95;;;1.10;;
13202;SDS011;6666;51.626;7.530;2023-04-03T01:47:07;3.22;;;1.33;;
13202;SDS011;6666;51.626;7.530;2023-04-03T01:49:38;4.80;;;1.20;;
13202;SDS011;6666;51.626;7.530;2023-04-03T01:52:07;3.25;;;1.20;;
13202;SDS011;6666;51.626;7.530;2023-04-03T01:54:36;5.72;;;1.20;;
13202;SDS011;6666;51.626;7.530;2023-04-03T01:57:04;4.90;;;1.20;;
13202;SDS011;6666;51.626;7.530;2023-04-03T01:59:33;4.10;;;1.30;;
13202;SDS011;6666;51.626;7.530;2023-04-03T02:02:02;3.20;;;1.30;;
13202;SDS011;6666;51.626;7.530;2023-04-03T02:04:32;2.30;;;0.98;;
13202;SDS011;6666;51.626;7.530;2023-04-03T02:07:00;2.85;;;1.15;;
13202;SDS011;6666;51.626;7.530;2023-04-03T02:09:28;6.47;;;1.23;;
13202;SDS011;6666;51.626;7.530;2023-04-03T02:11:56;4.40;;;1.00;;
13202;SDS011;6666;51.626;7.530;2023-04-03T02:14:25;3.97;;;1.00;;
13202;SDS011;6666;51.626;7.530;2023-04-03T02:16:54;2.93;;;1.30;;
13202;SDS011;6666;51.626;7.530;2023-04-03T02:19:22;4.70;;;1.20;;
13202;SDS011;6666;51.626;7.530;2023-04-03T02:21:52;2.55;;;1.27;;
13202;SDS011;6666;51.626;7.530;2023-04-03T02:24:21;2.70;;;1.20;;
13202;SDS011;6666;51.626;7.530;2023-04-03T02:26:49;1.90;;;1.00;;
13202;SDS011;6666;51.626;7.530;2023-04-03T02:29:18;1.88;;;1.05;;
13202;SDS011;6666;51.626;7.530;2023-04-03T02:31:46;1.73;;;0.90;;
13202;SDS011;6666;51.626;7.530;2023-04-03T02:34:15;4.50;;;1.10;;
13202;SDS011;6666;51.626;7.530;2023-04-03T02:36:45;4.65;;;1.00;;
13202;SDS011;6666;51.626;7.530;2023-04-03T02:39:15;3.90;;;1.30;;
13202;SDS011;6666;51.626;7.530;2023-04-03T02:41:44;2.30;;;1.00;;
13202;SDS011;6666;51.626;7.530;2023-04-03T02:44:18;3.75;;;1.17;;
13202;SDS011;6666;51.626;7.530;2023-04-03T02:46:46;2.58;;;1.35;;
13202;SDS011;6666;51.626;7.530;2023-04-03T02:49:16;4.18;;;1.30;;
13202;SDS011;6666;51.626;7.530;2023-04-03T02:51:44;4.13;;;1.40;;
13202;SDS011;6666;51.626;7.530;2023-04-03T02:54:12;2.47;;;0.90;;
13202;SDS011;6666;51.626;7.530;2023-04-03T02:56:47;4.43;;;1.50;;
13202;SDS011;6666;51.626;7.530;2023-04-03T02:59:15;2.22;;;1.10;;
13202;SDS011;6666;51.626;7.530;2023-04-03T03:01:44;3.13;;;1.35;;
13202;SDS011;6666;51.626;7.530;2023-04-03T03:04:12;3.08;;;1.38;;
13202;SDS011;6666;51.626;7.530;2023-04-03T03:06:40;3.60;;;1.30;;
13202;SDS011;6666;51.626;7.530;2023-04-03T03:09:12;2.20;;;1.10;;
13202;SDS011;6666;51.626;7.530;2023-04-03T03:11:41;3.10;;;1.10;;
13202;SDS011;6666;51.626;7.530;2023-04-03T03:14:11;4.13;;;1.02;;
13202;SDS011;6666;51.626;7.530;2023-04-03T03:16:39;5.00;;;1.30;;
13202;SDS011;6666;51.626;7.530;2023-04-03T03:19:08;5.22;;;1.20;;
13202;SDS011;6666;51.626;7.530;2023-04-03T03:21:36;2.40;;;1.05;;
13202;SDS011;6666;51.626;7.530;2023-04-03T03:24:05;4.70;;;1.20;;
13202;SDS011;6666;51.626;7.530;2023-04-03T03:26:34;4.18;;;1.02;;
13202;SDS011;6666;51.626;7.530;2023-04-03T03:29:02;2.80;;;1.00;;
13202;SDS011;6666;51.626;7.530;2023-04-03T03:31:32;3.72;;;1.20;;
13202;SDS011;6666;51.626;7.530;2023-04-03T03:34:01;3.60;;;1.40;;
13202;SDS011;6666;51.626;7.530;2023-04-03T03:36:29;5.15;;;1.23;;
13202;SDS011;6666;51.626;7.530;2023-04-03T03:38:58;2.03;;;0.90;;
13202;SDS011;6666;51.626;7.530;2023-04-03T03:41:27;2.70;;;1.33;;
13202;SDS011;6666;51.626;7.530;2023-04-03T03:43:55;1.92;;;1.20;;
13202;SDS011;6666;51.626;7.530;2023-04-03T03:46:25;3.17;;;1.00;;
13202;SDS011;6666;51.626;7.530;2023-04-03T03:48:55;4.70;;;1.48;;
13202;SDS011;6666;51.626;7.530;2023-04-03T03:51:23;2.05;;;1.00;;
13202;SDS011;6666;51.626;7.530;2023-04-03T03:53:52;2.30;;;1.13;;
13202;SDS011;6666;51.626;7.530;2023-04-03T03:56:21;3.97;;;1.50;;
13202;SDS011;6666;51.626;7.530;2023-04-03T03:58:50;4.60;;;1.17;;
13202;SDS011;6666;51.626;7.530;2023-04-03T04:01:20;3.75;;;1.00;;
13202;SDS011;6666;51.626;7.530;2023-04-03T04:03:48;5.20;;;1.40;;
13202;SDS011;6666;51.626;7.530;2023-04-03T04:06:21;3.47;;;1.30;;
13202;SDS011;6666;51.626;7.530;2023-04-03T04:08:52;6.28;;;1.20;;
13202;SDS011;6666;51.626;7.530;2023-04-03T04:11:21;4.03;;;1.25;;
13202;SDS011;6666;51.626;7.530;2023-04-03T04:13:50;5.30;;;1.20;;
13202;SDS011;6666;51.626;7.530;2023-04-03T04:16:23;2.67;;;1.20;;
13202;SDS011;6666;51.626;7.530;2023-04-03T04:18:53;2.88;;;1.35;;
13202;SDS011;6666;51.626;7.530;2023-04-03T04:21:24;2.00;;;1.35;;
13202;SDS011;6666;51.626;7.530;2023-04-03T04:23:53;5.93;;;1.20;;
13202;SDS011;6666;51.626;7.530;2023-04-03T04:26:23;3.10;;;1.10;;
13202;SDS011;6666;51.626;7.530;2023-04-03T04:28:51;3.78;;;1.40;;
13202;SDS011;6666;51.626;7.530;2023-04-03T04:31:20;3.20;;;1.10;;
13202;SDS011;6666;51.626;7.530;2023-04-03T04:33:48;5.03;;;1.50;;
13202;SDS011;6666;51.626;7.530;2023-04-03T04:36:17;3.83;;;1.10;;
13202;SDS011;6666;51.626;7.530;2023-04-03T04:38:49;4.70;;;1.40;;
13202;SDS011;6666;51.626;7.530;2023-04-03T04:41:21;1.77;;;1.08;;
13202;SDS011;6666;51.626;7.530;2023-04-03T04:43:50;7.28;;;1.70;;
13202;SDS011;6666;51.626;7.530;2023-04-03T04:46:19;2.10;;;1.15;;
13202;SDS011;6666;51.626;7.530;2023-04-03T04:48:52;5.47;;;1.55;;
13202;SDS011;6666;51.626;7.530;2023-04-03T04:51:22;3.17;;;1.30;;
13202;SDS011;6666;51.626;7.530;2023-04-03T04:53:52;3.13;;;1.50;;
13202;SDS011;6666;51.626;7.530;2023-04-03T04:56:22;5.60;;;1.40;;
13202;SDS011;6666;51.626;7.530;2023-04-03T04:58:54;6.57;;;1.33;;
13202;SDS011;6666;51.626;7.530;2023-04-03T05:01:24;4.25;;;1.20;;
13202;SDS011;6666;51.626;7.530;2023-04-03T05:03:59;4.70;;;1.25;;
13202;SDS011;6666;51.626;7.530;2023-04-03T05:06:27;4.60;;;1.55;;
13202;SDS011;6666;51.626;7.530;2023-04-03T05:08:58;3.30;;;1.63;;
13202;SDS011;6666;51.626;7.530;2023-04-03T05:11:27;3.70;;;1.50;;
13202;SDS011;6666;51.626;7.530;2023-04-03T05:13:55;3.30;;;1.40;;
13202;SDS011;6666;51.626;7.530;2023-04-03T05:16:25;6.40;;;1.93;;
13202;SDS011;6666;51.626;7.530;2023-04-03T05:18:54;1.70;;;1.10;;
13202;SDS011;6666;51.626;7.530;2023-04-03T05:21:23;3.50;;;1.20;;
13202;SDS011;6666;51.626;7.530;2023-04-03T05:23:53;2.90;;;1.20;;
13202;SDS011;6666;51.626;7.530;2023-04-03T05:26:23;3.10;;;1.60;;
13202;SDS011;6666;51.626;7.530;2023-04-03T05:28:52;9.10;;;1.50;;
13202;SDS011;6666;51.626;7.530;2023-04-03T05:31:20;4.72;;;1.98;;
13202;SDS011;6666;51.626;7.530;2023-04-03T05:33:49;3.22;;;1.50;;
13202;SDS011;6666;51.626;7.530;2023-04-03T05:36:18;3.72;;;1.80;;
13202;SDS011;6666;51.626;7.530;2023-04-03T05:38:51;7.28;;;1.98;;
13202;SDS011;6666;51.626;7.530;2023-04-03T05:41:20;3.85;;;1.38;;
13202;SDS011;6666;51.626;7.530;2023-04-03T05:43:50;6.10;;;1.70;;
13202;SDS011;6666;51.626;7.530;2023-04-03T05:46:20;2.88;;;1.30;;
13202;SDS011;6666;51.626;7.530;2023-04-03T05:48:52;2.95;;;1.50;;
13202;SDS011;6666;51.626;7.530;2023-04-03T05:51:24;2.30;;;1.30;;
13202;SDS011;6666;51.626;7.530;2023-04-03T05:54:03;5.82;;;1.60;;
13202;SDS011;6666;51.626;7.530;2023-04-03T05:56:36;4.53;;;1.90;;
13202;SDS011;6666;51.626;7.530;2023-04-03T05:59:06;5.20;;;1.90;;
13202;SDS011;6666;51.626;7.530;2023-04-03T06:01:35;7.63;;;1.65;;
13202;SDS011;6666;51.626;7.530;2023-04-03T06:04:04;6.07;;;2.10;;
13202;SDS011;6666;51.626;7.530;2023-04-03T06:06:42;5.83;;;2.10;;
13202;SDS011;6666;51.626;7.530;2023-04-03T06:09:12;4.15;;;1.50;;
13202;SDS011;6666;51.626;7.530;2023-04-03T06:11:40;3.20;;;1.50;;
13202;SDS011;6666;51.626;7.530;2023-04-03T06:14:10;3.60;;;1.50;;
13202;SDS011;6666;51.626;7.530;2023-04-03T06:16:39;3.07;;;1.37;;
13202;SDS011;6666;51.626;7.530;2023-04-03T06:19:07;6.95;;;1.38;;
13202;SDS011;6666;51.626;7.530;2023-04-03T06:21:39;5.47;;;1.90;;
13202;SDS011;6666;51.626;7.530;2023-04-03T06:24:07;4.30;;;1.52;;
13202;SDS011;6666;51.626;7.530;2023-04-03T06:26:37;3.38;;;1.40;;
13202;SDS011;6666;51.626;7.530;2023-04-03T06:29:05;4.13;;;1.50;;
13202;SDS011;6666;51.626;7.530;2023-04-03T06:31:35;3.63;;;1.63;;
13202;SDS011;6666;51.626;7.530;2023-04-03T06:34:04;2.13;;;1.35;;
13202;SDS011;6666;51.626;7.530;2023-04-03T06:36:35;3.30;;;1.30;;
13202;SDS011;6666;51.626;7.530;2023-04-03T06:39:03;2.85;;;1.60;;
13202;SDS011;6666;51.626;7.530;2023-04-03T06:41:32;7.80;;;1.58;;
13202;SDS011;6666;51.626;7.530;2023-04-03T06:44:02;3.67;;;1.63;;
13202;SDS011;6666;51.626;7.530;2023-04-03T06:46:31;5.15;;;1.67;;
13202;SDS011;6666;51.626;7.530;2023-04-03T06:49:01;2.55;;;1.40;;
13202;SDS011;6666;51.626;7.530;2023-04-03T06:51:30;3.30;;;1.20;;
13202;SDS011;6666;51.626;7.530;2023-04-03T06:53:58;4.70;;;1.60;;
13202;SDS011;6666;51.626;7.530;2023-04-03T06:56:27;4.35;;;1.52;;
13202;SDS011;6666;51.626;7.530;2023-04-03T06:58:56;6.35;;;1.65;;
13202;SDS011;6666;51.626;7.530;2023-04-03T07:01:26;2.80;;;1.40;;
13202;SDS011;6666;51.626;7.530;2023-04-03T07:03:56;8.65;;;1.60;;
13202;SDS011;6666;51.626;7.530;2023-04-03T07:06:26;4.40;;;1.67;;
13202;SDS011;6666;51.626;7.530;2023-04-03T07:08:54;7.18;;;1.70;;
13202;SDS011;6666;51.626;7.530;2023-04-03T07:11:23;3.60;;;1.10;;
13202;SDS011;6666;51.626;7.530;2023-04-03T07:13:52;3.03;;;1.10;;
13202;SDS011;6666;51.626;7.530;2023-04-03T07:16:20;4.72;;;1.30;;
13202;SDS011;6666;51.626;7.530;2023-04-03T07:18:49;5.00;;;1.40;;
13202;SDS011;6666;51.626;7.530;2023-04-03T07:21:17;5.72;;;1.50;;
13202;SDS011;6666;51.626;7.530;2023-04-03T07:23:47;4.20;;;1.10;;
13202;SDS011;6666;51.626;7.530;2023-04-03T07:26:20;5.40;;;1.40;;
13202;SDS011;6666;51.626;7.530;2023-04-03T07:28:48;5.63;;;1.45;;
13202;SDS011;6666;51.626;7.530;2023-04-03T07:31:17;5.35;;;1.90;;
13202;SDS011;6666;51.626;7.530;2023-04-03T07:33:46;2.47;;;1.20;;
13202;SDS011;6666;51.626;7.530;2023-04-03T07:36:16;4.35;;;1.73;;
13202;SDS011;6666;51.626;7.530;2023-04-03T07:38:46;4.00;;;1.80;;
13202;SDS011;6666;51.626;7.530;2023-04-03T07:41:16;4.63;;;1.05;;
13202;SDS011;6666;51.626;7.530;2023-04-03T07:43:48;3.78;;;1.33;;
13202;SDS011;6666;51.626;7.530;2023-04-03T07:46:17;2.92;;;1.23;;
13202;SDS011;6666;51.626;7.530;2023-04-03T07:48:45;4.30;;;1.40;;
13202;SDS011;6666;51.626;7.530;2023-04-03T07:51:14;2.97;;;1.30;;
13202;SDS011;6666;51.626;7.530;2023-04-03T07:53:42;2.95;;;0.90;;
13202;SDS011;6666;51.626;7.530;2023-04-03T07:56:12;4.38;;;1.67;;
13202;SDS011;6666;51.626;7.530;2023-04-03T07:58:40;5.07;;;1.17;;
13202;SDS011;6666;51.626;7.530;2023-04-03T08:01:08;4.35;;;1.20;;
13202;SDS011;6666;51.626;7.530;2023-04-03T08:03:37;3.25;;;1.20;;
13202;SDS011;6666;51.626;7.530;2023-04-03T08:06:07;3.70;;;1.20;;
13202;SDS011;6666;51.626;7.530;2023-04-03T08:08:41;6.13;;;1.00;;
13202;SDS011;6666;51.626;7.530;2023-04-03T08:11:11;2.90;;;1.30;;
13202;SDS011;6666;51.626;7.530;2023-04-03T08:13:40;3.40;;;1.40;;
13202;SDS011;6666;51.626;7.530;2023-04-03T08:16:10;1.70;;;0.90;;
13202;SDS011;6666;51.626;7.530;2023-04-03T08:18:38;3.70;;;0.90;;
13202;SDS011;6666;51.626;7.530;2023-04-03T08:21:07;2.55;;;1.30;;
13202;SDS011;6666;51.626;7.530;2023-04-03T08:23:36;2.80;;;0.90;;
13202;SDS011;6666;51.626;7.530;2023-04-03T08:26:08;2.05;;;1.10;;
13202;SDS011;6666;51.626;7.530;2023-04-03T08:28:39;2.80;;;1.20;;
13202;SDS011;6666;51.626;7.530;2023-04-03T08:31:09;5.75;;;1.00;;
13202;SDS011;6666;51.626;7.530;2023-04-03T08:33:40;3.65;;;1.10;;
13202;SDS011;6666;51.626;7.530;2023-04-03T08:36:16;2.80;;;0.93;;
13202;SDS011;6666;51.626;7.530;2023-04-03T08:38:46;3.75;;;0.80;;
13202;SDS011;6666;51.626;7.530;2023-04-03T08:41:16;4.80;;;1.40;;
13202;SDS011;6666;51.626;7.530;2023-04-03T08:44:03;4.03;;;1.10;;
13202;SDS011;6666;51.626;7.530;2023-04-03T08:46:46;5.13;;;0.80;;
13202;SDS011;6666;51.626;7.530;2023-04-03T08:49:28;2.50;;;0.80;;
13202;SDS011;6666;51.626;7.530;2023-04-03T08:52:00;3.65;;;0.95;;
13202;SDS011;6666;51.626;7.530;2023-04-03T08:54:33;1.10;;;0.82;;
13202;SDS011;6666;51.626;7.530;2023-04-03T08:57:16;1.58;;;1.10;;
13202;SDS011;6666;51.626;7.530;2023-04-03T08:59:49;3.30;;;1.13;;
13202;SDS011;6666;51.626;7.530;2023-04-03T09:02:23;3.80;;;1.10;;
13202;SDS011;6666;51.626;7.530;2023-04-03T09:04:55;2.35;;;1.00;;
13202;SDS011;6666;51.626;7.530;2023-04-03T09:07:28;1.43;;;0.90;;
13202;SDS011;6666;51.626;7.530;2023-04-03T09:10:04;5.97;;;1.00;;
13202;SDS011;6666;51.626;7.530;2023-04-03T09:12:34;3.08;;;0.70;;
13202;SDS011;6666;51.626;7.530;2023-04-03T09:15:10;2.17;;;1.10;;
13202;SDS011;6666;51.626;7.530;2023-04-03T09:18:03;3.05;;;1.00;;
13202;SDS011;6666;51.626;7.530;2023-04-03T09:20:38;1.90;;;0.90;;
13202;SDS011;6666;51.626;7.530;2023-04-03T09:23:22;3.30;;;0.90;;
13202;SDS011;6666;51.626;7.530;2023-04-03T09:25:57;2.72;;;0.93;;
13202;SDS011;6666;51.626;7.530;2023-04-03T09:28:31;3.50;;;0.90;;
13202;SDS011;6666;51.626;7.530;2023-04-03T09:31:19;2.05;;;0.80;;
13202;SDS011;6666;51.626;7.530;2023-04-03T09:33:50;4.10;;;0.70;;
13202;SDS011;6666;51.626;7.530;2023-04-03T09:39:11;3.70;;;1.40;;
13202;SDS011;6666;51.626;7.530;2023-04-03T09:41:42;3.30;;;1.00;;
13202;SDS011;6666;51.626;7.530;2023-04-03T09:44:24;3.47;;;0.98;;
13202;SDS011;6666;51.626;7.530;2023-04-03T09:46:55;1.40;;;0.70;;
13202;SDS011;6666;51.626;7.530;2023-04-03T09:49:23;2.60;;;1.00;;
13202;SDS011;6666;51.626;7.530;2023-04-03T09:51:52;2.95;;;0.80;;
13202;SDS011;6666;51.626;7.530;2023-04-03T09:54:24;2.03;;;0.80;;
13202;SDS011;6666;51.626;7.530;2023-04-03T09:57:07;2.70;;;0.80;;
13202;SDS011;6666;51.626;7.530;2023-04-03T09:59:41;2.00;;;0.80;;
13202;SDS011;6666;51.626;7.530;2023-04-03T10:02:27;1.20;;;0.70;;
13202;SDS011;6666;51.626;7.530;2023-04-03T10:05:01;2.60;;;0.85;;
13202;SDS011;6666;51.626;7.530;2023-04-03T10:07:34;2.00;;;0.88;;
13202;SDS011;6666;51.626;7.530;2023-04-03T10:10:15;1.83;;;0.80;;
13202;SDS011;6666;51.626;7.530;2023-04-03T10:12:46;4.40;;;1.00;;
13202;SDS011;6666;51.626;7.530;2023-04-03T10:15:16;2.80;;;0.77;;
13202;SDS011;6666;51.626;7.530;2023-04-03T10:17:50;1.02;;;0.70;;
13202;SDS011;6666;51.626;7.530;2023-04-03T10:20:26;2.88;;;0.90;;
13202;SDS011;6666;51.626;7.530;2023-04-03T10:23:02;2.30;;;0.90;;
13202;SDS011;6666;51.626;7.530;2023-04-03T10:25:43;1.42;;;0.70;;
13202;SDS011;6666;51.626;7.530;2023-04-03T10:28:24;1.75;;;0.80;;
13202;SDS011;6666;51.626;7.530;2023-04-03T10:31:01;2.80;;;0.80;;
13202;SDS011;6666;51.626;7.530;2023-04-03T10:33:39;2.20;;;0.80;;
13202;SDS011;6666;51.626;7.530;2023-04-03T10:36:17;2.58;;;1.02;;
13202;SDS011;6666;51.626;7.530;2023-04-03T10:38:55;2.17;;;0.80;;
13202;SDS011;6666;51.626;7.530;2023-04-03T10:41:35;3.80;;;1.20;;
13202;SDS011;6666;51.626;7.530;2023-04-03T10:44:14;5.00;;;0.80;;
13202;SDS011;6666;51.626;7.530;2023-04-03T10:46:48;3.33;;;0.88;;
13202;SDS011;6666;51.626;7.530;2023-04-03T10:49:30;2.30;;;1.00;;
13202;SDS011;6666;51.626;7.530;2023-04-03T10:52:17;2.50;;;0.90;;
13202;SDS011;6666;51.626;7.530;2023-04-03T10:54:53;2.47;;;0.70;;
13202;SDS011;6666;51.626;7.530;2023-04-03T10:57:30;4.00;;;0.90;;
13202;SDS011;6666;51.626;7.530;2023-04-03T10:59:59;1.10;;;0.70;;
13202;SDS011;6666;51.626;7.530;2023-04-03T11:02:32;1.30;;;0.80;;
13202;SDS011;6666;51.626;7.530;2023-04-03T11:05:07;2.17;;;0.65;;
13202;SDS011;6666;51.626;7.530;2023-04-03T11:07:44;2.00;;;0.55;;
13202;SDS011;6666;51.626;7.530;2023-04-03T11:10:18;1.60;;;0.90;;
13202;SDS011;6666;51.626;7.530;2023-04-03T11:12:51;2.92;;;0.90;;
13202;SDS011;6666;51.626;7.530;2023-04-03T11:15:24;1.73;;;0.67;;
13202;SDS011;6666;51.626;7.530;2023-04-03T11:17:54;1.70;;;0.70;;
13202;SDS011;6666;51.626;7.530;2023-04-03T11:20:28;4.03;;;1.00;;
13202;SDS011;6666;51.626;7.530;2023-04-03T11:23:00;2.90;;;1.10;;
13202;SDS011;6666;51.626;7.530;2023-04-03T11:25:31;3.30;;;0.90;;
13202;SDS011;6666;51.626;7.530;2023-04-03T11:28:03;3.40;;;1.00;;
13202;SDS011;6666;51.626;7.530;2023-04-03T11:30:33;2.35;;;0.80;;
13202;SDS011;6666;51.626;7.530;2023-04-03T11:33:13;2.22;;;0.82;;
13202;SDS011;6666;51.626;7.530;2023-04-03T11:35:59;1.90;;;0.93;;
13202;SDS011;6666;51.626;7.530;2023-04-03T11:38:51;1.40;;;0.70;;
13202;SDS011;6666;51.626;7.530;2023-04-03T11:41:26;1.70;;;1.00;;
13202;SDS011;6666;51.626;7.530;2023-04-03T11:43:57;4.00;;;0.70;;
13202;SDS011;6666;51.626;7.530;2023-04-03T11:55:45;1.45;;;0.73;;
13202;SDS011;6666;51.626;7.530;2023-04-03T11:58:21;2.60;;;1.27;;
13202;SDS011;6666;51.626;7.530;2023-04-03T12:00:55;2.80;;;0.80;;
13202;SDS011;6666;51.626;7.530;2023-04-03T12:09:58;2.50;;;0.60;;
13202;SDS011;6666;51.626;7.530;2023-04-03T12:12:38;2.78;;;0.90;;
13202;SDS011;6666;51.626;7.530;2023-04-03T12:15:22;2.90;;;0.90;;
13202;SDS011;6666;51.626;7.530;2023-04-03T12:21:19;1.88;;;0.88;;
13202;SDS011;6666;51.626;7.530;2023-04-03T12:23:56;1.60;;;0.70;;
13202;SDS011;6666;51.626;7.530;2023-04-03T12:26:32;1.40;;;0.80;;
13202;SDS011;6666;51.626;7.530;2023-04-03T12:29:15;1.35;;;0.60;;
13202;SDS011;6666;51.626;7.530;2023-04-03T12:31:53;3.53;;;0.70;;
13202;SDS011;6666;51.626;7.530;2023-04-03T12:34:40;2.20;;;1.40;;
13202;SDS011;6666;51.626;7.530;2023-04-03T12:37:20;1.40;;;0.80;;
13202;SDS011;6666;51.626;7.530;2023-04-03T12:40:07;1.80;;;0.80;;
13202;SDS011;6666;51.626;7.530;2023-04-03T12:42:51;2.00;;;0.90;;
13202;SDS011;6666;51.626;7.530;2023-04-03T12:45:37;1.10;;;0.63;;
13202;SDS011;6666;51.626;7.530;2023-04-03T12:48:12;3.22;;;1.35;;
13202;SDS011;6666;51.626;7.530;2023-04-03T12:50:43;1.30;;;0.70;;
13202;SDS011;6666;51.626;7.530;2023-04-03T12:53:15;1.90;;;0.90;;
13202;SDS011;6666;51.626;7.530;2023-04-03T12:55:45;1.50;;;0.60;;
13202;SDS011;6666;51.626;7.530;2023-04-03T12:58:15;2.00;;;0.80;;
13202;SDS011;6666;51.626;7.530;2023-04-03T13:00:58;1.40;;;0.90;;
13202;SDS011;6666;51.626;7.530;2023-04-03T13:03:28;1.77;;;1.00;;
13202;SDS011;6666;51.626;7.530;2023-04-03T13:05:59;2.40;;;0.90;;
13202;SDS011;6666;51.626;7.530;2023-04-03T13:08:28;1.60;;;0.80;;
13202;SDS011;6666;51.626;7.530;2023-04-03T13:10:58;1.45;;;0.95;;
13202;SDS011;6666;51.626;7.530;2023-04-03T13:13:31;6.78;;;1.00;;
13202;SDS011;6666;51.626;7.530;2023-04-03T13:16:00;1.70;;;0.80;;
13202;SDS011;6666;51.626;7.530;2023-04-03T13:18:37;1.98;;;0.90;;
13202;SDS011;6666;51.626;7.530;2023-04-03T13:21:05;1.98;;;0.80;;
13202;SDS011;6666;51.626;7.530;2023-04-03T13:23:38;2.10;;;0.85;;
13202;SDS011;6666;51.626;7.530;2023-04-03T13:26:10;1.90;;;0.80;;
13202;SDS011;6666;51.626;7.530;2023-04-03T13:28:40;2.60;;;0.80;;
13202;SDS011;6666;51.626;7.530;2023-04-03T13:31:17;4.50;;;1.10;;
13202;SDS011;6666;51.626;7.530;2023-04-03T13:33:53;2.25;;;0.85;;
13202;SDS011;6666;51.626;7.530;2023-04-03T13:36:24;4.90;;;1.00;;
13202;SDS011;6666;51.626;7.530;2023-04-03T13:39:00;3.50;;;0.70;;
13202;SDS011;6666;51.626;7.530;2023-04-03T13:41:32;1.50;;;0.90;;
13202;SDS011;6666;51.626;7.530;2023-04-03T13:44:16;3.40;;;1.20;;
13202;SDS011;6666;51.626;7.530;2023-04-03T13:46:53;2.50;;;1.00;;
13202;SDS011;6666;51.626;7.530;2023-04-03T13:49:27;5.80;;;1.00;;
13202;SDS011;6666;51.626;7.530;2023-04-03T13:51:58;4.40;;;0.90;;
13202;SDS011;6666;51.626;7.530;2023-04-03T13:54:34;3.00;;;1.20;;
13202;SDS011;6666;51.626;7.530;2023-04-03T13:57:10;2.40;;;0.82;;
13202;SDS011;6666;51.626;7.530;2023-04-03T13:59:42;1.87;;;0.97;;
13202;SDS011;6666;51.626;7.530;2023-04-03T14:02:16;1.50;;;0.90;;
13202;SDS011;6666;51.626;7.530;2023-04-03T14:04:52;1.60;;;1.00;;
13202;SDS011;6666;51.626;7.530;2023-04-03T14:07:24;1.92;;;0.90;;
13202;SDS011;6666;51.626;7.530;2023-04-03T14:09:54;2.28;;;0.80;;
13202;SDS011;6666;51.626;7.530;2023-04-03T14:12:24;4.07;;;1.02;;
13202;SDS011;6666;51.626;7.530;2023-04-03T14:14:59;3.42;;;0.82;;
13202;SDS011;6666;51.626;7.530;2023-04-03T14:17:29;2.13;;;0.88;;
13202;SDS011;6666;51.626;7.530;2023-04-03T14:19:58;2.53;;;1.17;;
13202;SDS011;6666;51.626;7.530;2023-04-03T14:22:28;3.38;;;1.02;;
13202;SDS011;6666;51.626;7.530;2023-04-03T14:24:58;3.58;;;1.00;;
13202;SDS011;6666;51.626;7.530;2023-04-03T14:27:27;2.00;;;0.80;;
13202;SDS011;6666;51.626;7.530;2023-04-03T14:29:59;3.10;;;1.10;;
13202;SDS011;6666;51.626;7.530;2023-04-03T14:32:29;2.42;;;1.00;;
13202;SDS011;6666;51.626;7.530;2023-04-03T14:34:58;1.40;;;1.00;;
13202;SDS011;6666;51.626;7.530;2023-04-03T14:37:28;2.33;;;1.05;;
13202;SDS011;6666;51.626;7.530;2023-04-03T14:39:58;1.85;;;0.98;;
13202;SDS011;6666;51.626;7.530;2023-04-03T14:42:29;3.40;;;0.90;;
13202;SDS011;6666;51.626;7.530;2023-04-03T14:45:00;2.67;;;1.10;;
13202;SDS011;6666;51.626;7.530;2023-04-03T14:47:31;4.75;;;1.10;;
13202;SDS011;6666;51.626;7.530;2023-04-03T14:50:00;3.63;;;1.00;;
13202;SDS011;6666;51.626;7.530;2023-04-03T14:52:31;3.40;;;1.10;;
13202;SDS011;6666;51.626;7.530;2023-04-03T14:55:03;2.50;;;1.00;;
13202;SDS011;6666;51.626;7.530;2023-04-03T14:57:33;2.40;;;1.20;;
13202;SDS011;6666;51.626;7.530;2023-04-03T15:00:03;3.10;;;1.00;;
13202;SDS011;6666;51.626;7.530;2023-04-03T15:02:35;2.47;;;0.82;;
13202;SDS011;6666;51.626;7.530;2023-04-03T15:05:06;2.17;;;0.90;;
13202;SDS011;6666;51.626;7.530;2023-04-03T15:07:36;1.80;;;1.10;;
13202;SDS011;6666;51.626;7.530;2023-04-03T15:10:13;1.50;;;0.90;;
13202;SDS011;6666;51.626;7.530;2023-04-03T15:12:44;1.50;;;1.00;;
13202;SDS011;6666;51.626;7.530;2023-04-03T15:15:15;2.10;;;1.00;;
13202;SDS011;6666;51.626;7.530;2023-04-03T15:17:46;1.60;;;1.00;;
13202;SDS011;6666;51.626;7.530;2023-04-03T15:20:21;3.17;;;1.70;;
13202;SDS011;6666;51.626;7.530;2023-04-03T15:22:51;3.53;;;1.30;;
13202;SDS011;6666;51.626;7.530;2023-04-03T15:25:19;3.20;;;1.10;;
13202;SDS011;6666;51.626;7.530;2023-04-03T15:27:47;1.80;;;1.00;;
13202;SDS011;6666;51.626;7.530;2023-04-03T15:30:18;1.90;;;0.90;;
13202;SDS011;6666;51.626;7.530;2023-04-03T15:32:47;2.37;;;0.90;;
13202;SDS011;6666;51.626;7.530;2023-04-03T15:35:16;2.30;;;0.90;;
13202;SDS011;6666;51.626;7.530;2023-04-03T15:37:44;3.03;;;1.00;;
13202;SDS011;6666;51.626;7.530;2023-04-03T15:40:14;2.07;;;0.90;;
13202;SDS011;6666;51.626;7.530;2023-04-03T15:42:43;6.25;;;0.85;;
13202;SDS011;6666;51.626;7.530;2023-04-03T15:45:11;4.22;;;0.90;;
13202;SDS011;6666;51.626;7.530;2023-04-03T15:47:41;3.22;;;1.00;;
13202;SDS011;6666;51.626;7.530;2023-04-03T15:50:10;1.98;;;0.90;;
13202;SDS011;6666;51.626;7.530;2023-04-03T15:52:38;1.00;;;0.80;;